Skip Navigation Links
NOAA logo - Click to go to the NOAA homepage
NOAA's National Weather Service
Alaska Aviation Weather Unit
  NWS logo - Click to go to the NWS homepage
Left Navbar Graphic     19 AKDT = 03 GMT

   
NOAA is celebrating 200 years of science, service, and stewardship. Visit the NOAA 200th celebration Web site to learn more.
USA.gov is the U.S. Government's official Web portal to all Federal, state and local government Web resources and services.
Facebook
NWS on Facebook

Important Change Regarding the AAWU Web Presence

 

Over the last several months, the AAWU has been working to navigate its webpages to a nationally supported server. Security, as well as other needs, have necessitated the change.  We have been given an extension for the site changeover while we diligently work at addressing feedback received. As of July 14, 2017, aawu.arh.noaa.gov will be discontinued. The new AAWU web address is weather.gov/aawu. It is now live and will run in-parallel with the old site until it is discontinued on July 14, 2017. Please continue to send any feedback or questions regarding the new webpages to nws.ar.aawu.webauthors@noaa.gov.  Thank you for your patience during this time of transition.
AAWU Home :: Display TAF Add Bookmark
METAR PANV 282116Z AUTO 00000KT 10SM SCT018 BKN026 OVC031 10/06
 A2975 RMK AO1=

METAR PANV 282136Z AUTO 00000KT 10SM FEW018 BKN026 OVC031 10/06 A2975
     RMK AO1=

METAR PANV 282156Z AUTO 00000KT 10SM FEW026 BKN037 OVC047 10/06 A2975
     RMK AO1=

METAR PANV 282216Z AUTO 00000KT 10SM FEW017 SCT033 BKN042 11/06 A2975
     RMK AO1=

METAR PANV 282236Z AUTO 12003KT 10SM FEW014 SCT025 BKN032 11/07 A2976
     RMK AO1=

METAR PANV 282256Z AUTO 00000KT 10SM FEW025 SCT032 BKN042 11/06 A2976
     RMK AO1=

METAR PANV 282316Z AUTO 00000KT 10SM FEW028 BKN041 OVC050 11/07 A2976
     RMK AO1=

METAR PANV 282336Z AUTO 15004KT 10SM BKN041 OVC047 11/07 A2976 RMK
 AO1=

METAR PANV 282356Z AUTO 14003KT 10SM FEW030 BKN039 OVC055 12/07
 A2976 RMK AO1=

METAR PANV 290016Z AUTO 00000KT 10SM FEW013 SCT034 BKN048 12/08
 A2976 RMK AO1=

METAR PANV 290036Z AUTO 16005KT 10SM FEW013 FEW055 OVC065 12/07 A2977
     RMK AO1=

METAR PANV 290056Z AUTO 15008KT 10SM OVC065 12/08 A2977 RMK AO1=

METAR PANV 290116Z AUTO 15008KT 10SM SCT035 BKN042 OVC055 12/08 A2977
     RMK AO1=

METAR PANV 290136Z AUTO 17004KT 10SM FEW015 BKN028 OVC049 12/08 A2977
     RMK AO1=

METAR PANV 290156Z AUTO 15004KT 10SM SCT016 BKN028 OVC055 12/08 A2977
     RMK AO1=

METAR PANV 290216Z AUTO 12004KT 10SM SCT016 BKN025 OVC049 12/08 A2977
     RMK AO1=

METAR PANV 290256Z AUTO 00000KT 9SM BKN013 BKN019 OVC024 12/08 A2978 RMK
     AO1 52007=

METAR PANV 290316Z AUTO 15012KT 10SM FEW013 BKN021 OVC028 12/08 A2978
     RMK AO1=

METAR PANV 290336Z AUTO 19005KT 6SM FEW008 SCT013 BKN021 11/07 A2979 RMK
     AO1=


NOAA's National Weather Service
Alaska Aviation Weather Unit
6930 Sand Lake Road
Anchorage, AK 99502-1845
Disclaimer
Credits
Glossary
Privacy Policy
About Us
Career Opportunities
Contact AAWU Internet Services Site last modified: April, 17th 2012